Time;durP1;ratioP1;P1;durP2;ratioP2;P2;SDS_P1;SDS_P2;PMS_P1;PMS_P2;Temp;Humidity;BMP_temperature;BMP_pressure;BME280_temperature;BME280_humidity;BME280_pressure;Samples;Min_cycle;Max_cycle;Signal;HPM_P1;HPM_P2
2021/11/10 00:00:34;;;;;;;50.40;23.67;;;10.80;99.90;;;;;;5054473;28;20202;-88
2021/11/10 00:03:01;;;;;;;40.57;20.60;;;10.80;99.90;;;;;;5053039;28;20217;-86
2021/11/10 00:05:28;;;;;;;41.03;21.00;;;10.80;99.90;;;;;;5053622;28;20622;-87
2021/11/10 00:07:55;;;;;;;47.03;21.57;;;10.90;99.90;;;;;;5054444;28;20197;-89
2021/11/10 00:10:22;;;;;;;45.90;22.23;;;10.90;99.90;;;;;;5053680;28;20190;-87
2021/11/10 00:12:50;;;;;;;42.13;20.10;;;10.90;99.90;;;;;;5053885;28;20210;-88
2021/11/10 00:15:17;;;;;;;33.53;18.27;;;10.90;99.90;;;;;;5054146;28;20218;-89
2021/11/10 00:17:45;;;;;;;36.97;19.03;;;10.90;99.90;;;;;;5074145;28;20566;-88
2021/11/10 00:20:12;;;;;;;45.00;20.30;;;10.90;99.90;;;;;;5067457;28;20211;-87
2021/11/10 00:22:40;;;;;;;40.90;19.33;;;10.90;99.90;;;;;;5053822;28;20221;-88
2021/11/10 00:25:09;;;;;;;38.93;19.73;;;10.90;99.90;;;;;;5053850;28;20197;-86
2021/11/10 00:27:36;;;;;;;39.90;20.13;;;10.90;99.90;;;;;;5053195;28;20213;-87
2021/11/10 00:30:04;;;;;;;43.97;18.63;;;10.90;99.90;;;;;;5062953;28;20611;-86
2021/11/10 00:32:31;;;;;;;41.13;18.37;;;10.90;99.90;;;;;;5073015;28;20604;-85
2021/11/10 00:34:59;;;;;;;36.43;17.07;;;10.90;99.90;;;;;;5073087;28;20209;-87
2021/11/10 00:37:25;;;;;;;39.23;17.73;;;11.00;99.90;;;;;;5072894;28;20204;-87
2021/11/10 00:39:52;;;;;;;39.17;17.83;;;10.90;99.90;;;;;;5055307;28;20221;-87
2021/11/10 00:42:19;;;;;;;37.37;17.83;;;11.00;99.90;;;;;;5053718;28;20204;-89
2021/11/10 00:44:46;;;;;;;42.93;18.43;;;10.90;99.90;;;;;;5065133;28;20238;-88
2021/11/10 00:47:13;;;;;;;41.33;19.40;;;10.90;99.90;;;;;;5073587;28;20193;-86
2021/11/10 00:49:40;;;;;;;39.90;17.63;;;10.90;99.90;;;;;;5073495;28;20205;-86
2021/11/10 00:52:08;;;;;;;44.97;18.13;;;10.90;99.90;;;;;;5072078;28;20213;-86
2021/11/10 00:54:35;;;;;;;35.13;17.87;;;11.00;99.90;;;;;;5033212;28;20219;-88
2021/11/10 00:57:02;;;;;;;45.07;17.23;;;11.00;99.90;;;;;;5033176;28;20230;-88
2021/11/10 00:59:28;;;;;;;38.43;17.10;;;11.00;99.90;;;;;;5032843;28;20211;-87
2021/11/10 01:01:55;;;;;;;36.10;16.63;;;11.00;99.90;;;;;;5033268;28;20226;-87
2021/11/10 01:04:22;;;;;;;39.30;17.67;;;11.00;99.90;;;;;;5033321;28;20198;-89
2021/11/10 01:06:49;;;;;;;37.50;17.93;;;11.00;99.90;;;;;;5033027;28;20535;-87
2021/11/10 01:09:17;;;;;;;44.63;18.03;;;11.00;99.90;;;;;;5033209;28;20234;-89
2021/11/10 01:11:45;;;;;;;42.10;17.87;;;11.00;99.90;;;;;;5032415;28;20608;-87
2021/11/10 01:14:12;;;;;;;41.30;17.17;;;11.10;99.90;;;;;;5032307;28;20199;-87
2021/11/10 01:16:39;;;;;;;45.87;19.30;;;11.10;99.90;;;;;;5057554;28;20221;-86
2021/11/10 01:19:06;;;;;;;45.80;18.00;;;11.10;99.90;;;;;;5073303;28;20218;-87
2021/11/10 01:21:33;;;;;;;41.20;18.30;;;11.10;99.90;;;;;;5073874;28;20212;-88
2021/11/10 01:24:00;;;;;;;39.67;17.90;;;11.10;99.90;;;;;;5074254;28;20193;-87
2021/11/10 01:26:29;;;;;;;42.70;19.13;;;11.10;99.90;;;;;;5054771;28;20220;-88
2021/11/10 01:28:56;;;;;;;39.33;18.47;;;11.10;99.90;;;;;;5054530;28;20213;-87
2021/11/10 01:31:22;;;;;;;44.07;18.03;;;11.10;99.90;;;;;;5054350;28;20628;-88
2021/11/10 01:33:50;;;;;;;43.37;19.63;;;11.00;99.90;;;;;;5054890;28;20258;-87
2021/11/10 01:36:18;;;;;;;39.67;19.70;;;11.00;99.90;;;;;;5047678;28;20234;-86
2021/11/10 01:38:45;;;;;;;34.53;17.23;;;11.10;99.90;;;;;;5035182;28;20206;-87
2021/11/10 01:41:12;;;;;;;43.23;20.50;;;11.00;99.90;;;;;;5034659;28;20202;-88
2021/11/10 01:43:41;;;;;;;36.27;18.27;;;11.00;99.90;;;;;;5047146;28;20693;-85
2021/11/10 01:46:08;;;;;;;36.80;19.17;;;11.00;99.90;;;;;;5051977;28;20240;-87
2021/11/10 01:48:35;;;;;;;38.00;16.50;;;11.10;99.90;;;;;;5052570;28;20413;-87
2021/11/10 01:51:02;;;;;;;35.90;18.33;;;11.10;99.90;;;;;;5067349;28;20202;-88
2021/11/10 01:53:29;;;;;;;36.97;20.07;;;11.00;99.90;;;;;;5068055;28;20204;-86
2021/11/10 01:55:56;;;;;;;38.93;18.90;;;11.00;99.90;;;;;;5066305;28;20217;-87
2021/11/10 01:58:23;;;;;;;38.83;18.57;;;11.00;99.90;;;;;;5063750;28;20257;-87
2021/11/10 02:00:52;;;;;;;41.37;19.77;;;11.10;99.90;;;;;;5054867;28;20296;-88
2021/11/10 02:03:19;;;;;;;37.23;20.60;;;11.10;99.90;;;;;;5051624;28;20273;-86
2021/11/10 02:05:46;;;;;;;38.33;18.50;;;11.00;99.90;;;;;;5052259;28;20259;-89
2021/11/10 02:08:13;;;;;;;37.20;17.73;;;11.00;99.90;;;;;;5045787;28;20630;-87
2021/11/10 02:10:40;;;;;;;36.20;18.77;;;11.00;99.90;;;;;;5032064;28;20198;-88
2021/11/10 02:13:07;;;;;;;33.60;17.47;;;11.00;99.90;;;;;;5032210;28;20222;-86
2021/11/10 02:15:34;;;;;;;36.67;17.33;;;11.00;99.90;;;;;;5050951;28;20245;-88
2021/11/10 02:18:04;;;;;;;33.87;16.90;;;11.00;99.90;;;;;;5051905;28;20247;-87
2021/11/10 02:20:35;;;;;;;33.67;16.63;;;11.00;99.90;;;;;;5061989;28;20219;-86
2021/11/10 02:23:04;;;;;;;34.93;16.70;;;11.00;99.90;;;;;;5070898;28;20205;-87
2021/11/10 02:25:32;;;;;;;33.20;16.57;;;11.00;99.90;;;;;;5059379;28;20202;-87
2021/11/10 02:27:59;;;;;;;30.20;15.17;;;11.00;99.90;;;;;;5051868;28;20293;-87
2021/11/10 02:30:27;;;;;;;35.60;15.40;;;11.00;99.90;;;;;;5051907;28;20514;-88
2021/11/10 02:32:56;;;;;;;35.33;16.73;;;10.90;99.90;;;;;;5050869;28;20201;-87
2021/11/10 02:35:26;;;;;;;34.97;17.73;;;11.00;99.90;;;;;;5051343;28;20509;-87
2021/11/10 02:37:54;;;;;;;43.97;18.23;;;10.90;99.90;;;;;;5050971;28;20516;-86
2021/11/10 02:40:24;;;;;;;31.60;16.00;;;10.90;99.90;;;;;;5050226;28;20209;-86
2021/11/10 02:42:52;;;;;;;31.47;15.17;;;10.90;99.90;;;;;;5050117;28;20199;-87
2021/11/10 02:45:19;;;;;;;33.40;17.40;;;10.90;99.90;;;;;;5047425;28;20222;-87
2021/11/10 02:47:46;;;;;;;32.47;16.27;;;10.90;99.90;;;;;;5032027;28;20199;-87
2021/11/10 02:50:13;;;;;;;39.00;17.20;;;10.90;99.90;;;;;;5031931;28;20203;-87
2021/11/10 02:52:40;;;;;;;34.50;16.13;;;10.90;99.90;;;;;;5047264;28;20632;-85
2021/11/10 02:55:08;;;;;;;34.53;16.43;;;10.90;99.90;;;;;;5051542;28;20210;-87
2021/11/10 02:57:36;;;;;;;31.30;14.70;;;10.90;99.90;;;;;;5052482;28;20236;-86
2021/11/10 03:00:05;;;;;;;28.67;14.60;;;10.90;99.90;;;;;;5065258;28;20205;-87
2021/11/10 03:02:32;;;;;;;31.90;15.43;;;10.90;99.90;;;;;;5071973;28;20272;-88
2021/11/10 03:05:00;;;;;;;39.73;16.13;;;10.80;99.90;;;;;;5055141;28;20579;-87
2021/11/10 03:07:27;;;;;;;33.53;16.03;;;10.80;99.90;;;;;;5055133;28;20213;-87
2021/11/10 03:09:54;;;;;;;37.57;17.13;;;10.80;99.90;;;;;;5054976;28;20190;-87
2021/11/10 03:12:21;;;;;;;40.10;17.97;;;10.90;99.90;;;;;;5054803;28;20665;-87
2021/11/10 03:14:50;;;;;;;34.93;16.97;;;10.90;99.90;;;;;;5055007;28;20191;-86
2021/11/10 03:17:18;;;;;;;29.07;14.57;;;10.90;99.90;;;;;;5055277;28;20224;-86
2021/11/10 03:19:46;;;;;;;34.80;17.00;;;10.80;99.90;;;;;;5055593;28;20194;-87
2021/11/10 03:22:14;;;;;;;33.93;15.73;;;10.80;99.90;;;;;;5054244;28;20210;-84
2021/11/10 03:24:42;;;;;;;28.50;15.37;;;10.80;99.90;;;;;;5054898;28;20229;-86
2021/11/10 03:27:09;;;;;;;31.87;16.07;;;10.80;99.90;;;;;;5054960;28;20198;-87
2021/11/10 03:29:36;;;;;;;33.63;16.70;;;10.80;99.90;;;;;;5054623;28;20198;-87
2021/11/10 03:32:05;;;;;;;33.37;16.50;;;10.80;99.90;;;;;;5053806;28;20198;-87
2021/11/10 03:34:33;;;;;;;38.27;17.00;;;10.80;99.90;;;;;;5054390;28;20210;-88
2021/11/10 03:37:00;;;;;;;33.93;16.60;;;10.80;99.90;;;;;;5054861;28;20233;-87
2021/11/10 03:39:28;;;;;;;37.97;17.47;;;10.80;99.90;;;;;;5054495;28;20194;-85
2021/11/10 03:41:55;;;;;;;37.00;17.70;;;10.80;99.90;;;;;;5054140;28;20201;-88
2021/11/10 03:44:23;;;;;;;33.47;16.67;;;10.80;99.90;;;;;;5054435;28;20194;-87
2021/11/10 03:46:50;;;;;;;39.20;17.23;;;10.80;99.90;;;;;;5035556;28;20206;-86
2021/11/10 03:49:18;;;;;;;29.83;14.80;;;10.80;99.90;;;;;;5034289;28;20195;-87
2021/11/10 03:51:45;;;;;;;29.10;15.93;;;10.80;99.90;;;;;;5072728;28;20743;-88
2021/11/10 03:54:12;;;;;;;37.00;16.97;;;10.80;99.90;;;;;;5074022;28;20255;-88
2021/11/10 03:56:40;;;;;;;31.77;15.87;;;10.80;99.90;;;;;;5064336;28;20225;-88
2021/11/10 03:59:06;;;;;;;31.80;16.27;;;10.70;99.90;;;;;;5054555;28;20614;-87
2021/11/10 04:01:33;;;;;;;34.57;16.93;;;10.70;99.90;;;;;;5054013;28;20209;-86
2021/11/10 04:04:00;;;;;;;37.77;17.53;;;10.70;99.90;;;;;;5053531;28;20193;-87
2021/11/10 04:06:29;;;;;;;26.10;14.27;;;10.70;99.90;;;;;;5053860;28;20198;-85
2021/11/10 04:08:56;;;;;;;33.70;16.80;;;10.70;99.90;;;;;;5051400;28;20202;-85
2021/11/10 04:11:23;;;;;;;32.93;16.90;;;10.70;99.90;;;;;;5052354;28;20205;-85
2021/11/10 04:13:51;;;;;;;35.47;16.90;;;10.70;99.90;;;;;;5048321;28;20198;-85
2021/11/10 04:16:22;;;;;;;31.03;16.10;;;10.70;99.90;;;;;;5033018;28;20229;-86
2021/11/10 04:18:50;;;;;;;32.07;16.30;;;10.70;99.90;;;;;;5033654;28;20195;-86
2021/11/10 04:21:18;;;;;;;34.60;16.67;;;10.70;99.90;;;;;;5033905;28;20207;-85
2021/11/10 04:23:50;;;;;;;32.43;16.70;;;10.70;99.90;;;;;;5034506;28;20294;-87
2021/11/10 04:26:17;;;;;;;33.77;16.97;;;10.70;99.90;;;;;;5033207;28;20207;-86
2021/11/10 04:28:44;;;;;;;31.13;15.27;;;10.70;99.90;;;;;;5031578;28;20293;-86
2021/11/10 04:31:11;;;;;;;34.73;15.47;;;10.70;99.90;;;;;;5033191;28;20865;-87
2021/11/10 04:33:38;;;;;;;34.93;16.50;;;10.70;99.90;;;;;;5033232;28;20900;-87
2021/11/10 04:36:05;;;;;;;34.93;16.43;;;10.70;99.90;;;;;;5039933;28;20202;-83
2021/11/10 04:38:32;;;;;;;31.17;16.83;;;10.70;99.90;;;;;;5053442;28;20248;-87
2021/11/10 04:41:01;;;;;;;29.20;16.17;;;10.70;99.90;;;;;;5053662;28;20190;-88
2021/11/10 04:43:28;;;;;;;33.17;17.53;;;10.70;99.90;;;;;;5062163;28;20273;-87
2021/11/10 04:46:02;;;;;;;30.80;16.47;;;10.70;99.90;;;;;;5072477;28;20244;-87
2021/11/10 04:48:29;;;;;;;34.90;16.47;;;10.70;99.90;;;;;;5073255;28;20201;-87
2021/11/10 04:50:56;;;;;;;35.20;15.57;;;10.70;99.90;;;;;;5073072;28;20208;-87
2021/11/10 04:53:23;;;;;;;31.40;16.20;;;10.70;99.90;;;;;;5047729;28;20209;-87
2021/11/10 04:55:50;;;;;;;33.70;15.53;;;10.70;99.90;;;;;;5033278;28;20211;-86
2021/11/10 04:58:18;;;;;;;28.30;15.37;;;10.70;99.90;;;;;;5033204;28;20230;-87
2021/11/10 05:00:46;;;;;;;32.87;15.73;;;10.70;99.90;;;;;;5033397;28;20608;-87
2021/11/10 05:03:13;;;;;;;29.63;15.93;;;10.70;99.90;;;;;;5033202;28;20678;-87
2021/11/10 05:05:40;;;;;;;32.43;16.20;;;10.70;99.90;;;;;;5043346;28;20283;-86
2021/11/10 05:08:07;;;;;;;35.70;16.90;;;10.70;99.90;;;;;;5046602;28;20217;-87
2021/11/10 05:10:34;;;;;;;35.70;17.40;;;10.70;99.90;;;;;;5033167;28;20202;-89
2021/11/10 05:13:01;;;;;;;39.67;18.23;;;10.70;99.90;;;;;;5047925;28;20205;-88
2021/11/10 05:15:30;;;;;;;34.43;17.00;;;10.60;99.90;;;;;;5073154;28;20208;-88
2021/11/10 05:17:56;;;;;;;37.33;16.87;;;10.70;99.90;;;;;;5042790;28;20241;-89
2021/11/10 05:20:23;;;;;;;37.47;16.57;;;10.70;99.90;;;;;;5032083;28;20229;-87
2021/11/10 05:22:51;;;;;;;34.27;16.50;;;10.70;99.90;;;;;;5032395;28;20218;-88
2021/11/10 05:25:18;;;;;;;31.07;14.93;;;10.70;99.90;;;;;;5033882;28;20582;-88
2021/11/10 05:27:45;;;;;;;40.23;17.63;;;10.70;99.90;;;;;;5032431;28;20233;-88
2021/11/10 05:30:12;;;;;;;35.47;16.17;;;10.70;99.90;;;;;;5032654;28;20194;-87
2021/11/10 05:32:42;;;;;;;41.90;17.53;;;10.70;99.90;;;;;;5067077;28;20201;-88
2021/11/10 05:35:11;;;;;;;39.37;17.17;;;10.70;99.90;;;;;;5061050;28;20218;-88
2021/11/10 05:37:37;;;;;;;42.57;17.27;;;10.70;99.90;;;;;;5030727;28;20226;-86
2021/11/10 05:40:07;;;;;;;31.13;15.60;;;10.70;99.90;;;;;;5038513;28;20220;-85
2021/11/10 05:42:34;;;;;;;39.13;17.03;;;10.70;99.90;;;;;;5052077;28;20798;-87
2021/11/10 05:45:01;;;;;;;31.90;15.93;;;10.70;99.90;;;;;;5051930;28;20554;-87
2021/11/10 05:47:28;;;;;;;34.73;15.40;;;10.70;99.90;;;;;;5031450;28;20212;-88
2021/11/10 05:49:56;;;;;;;42.67;17.97;;;10.70;99.90;;;;;;5031628;28;20311;-85
2021/11/10 05:52:23;;;;;;;39.07;18.33;;;10.70;99.90;;;;;;5032909;28;20225;-84
2021/11/10 05:54:50;;;;;;;37.83;16.63;;;10.70;99.90;;;;;;5031617;28;20210;-85
2021/11/10 05:57:17;;;;;;;39.43;16.10;;;10.70;99.90;;;;;;5031544;28;20226;-87
2021/11/10 05:59:45;;;;;;;37.30;17.00;;;10.70;99.90;;;;;;5039709;28;20285;-87
2021/11/10 06:02:13;;;;;;;30.37;14.03;;;10.70;99.90;;;;;;5051287;28;20223;-88
2021/11/10 06:04:41;;;;;;;38.00;15.80;;;10.70;99.90;;;;;;5051917;28;20663;-87
2021/11/10 06:07:09;;;;;;;31.67;15.00;;;10.70;99.90;;;;;;5051774;28;20190;-87
2021/11/10 06:09:36;;;;;;;30.83;15.77;;;10.70;99.90;;;;;;5051071;28;20256;-87
2021/11/10 06:12:04;;;;;;;34.30;15.60;;;10.70;99.90;;;;;;5057811;28;20208;-88
2021/11/10 06:14:31;;;;;;;34.20;15.20;;;10.70;99.90;;;;;;5072235;28;20209;-88
2021/11/10 06:16:58;;;;;;;29.93;15.00;;;10.70;99.90;;;;;;5071643;28;20535;-88
2021/11/10 06:19:26;;;;;;;30.13;14.00;;;10.70;99.90;;;;;;5071933;28;20193;-87
2021/11/10 06:21:53;;;;;;;40.33;15.67;;;10.70;99.90;;;;;;5054014;28;20212;-87
2021/11/10 06:24:21;;;;;;;25.77;13.33;;;10.70;99.90;;;;;;5049034;28;20217;-87
2021/11/10 06:26:48;;;;;;;25.30;12.47;;;10.80;99.90;;;;;;5051803;28;20206;-88
2021/11/10 06:29:15;;;;;;;25.67;12.63;;;10.80;99.90;;;;;;5051787;28;20205;-87
2021/11/10 06:31:44;;;;;;;28.47;13.03;;;10.80;99.90;;;;;;5051390;28;20224;-86
2021/11/10 06:34:11;;;;;;;29.93;13.97;;;10.80;99.90;;;;;;5055762;28;20202;-87
2021/11/10 06:36:38;;;;;;;37.97;16.27;;;10.80;99.90;;;;;;5075235;28;20189;-87
2021/11/10 06:39:05;;;;;;;35.33;14.83;;;10.80;99.90;;;;;;5074862;28;20225;-87
2021/11/10 06:41:34;;;;;;;38.67;16.57;;;10.80;99.90;;;;;;5075036;28;20197;-86
2021/11/10 06:44:01;;;;;;;35.87;16.63;;;10.80;99.90;;;;;;5062096;28;20331;-86
2021/11/10 06:46:28;;;;;;;34.67;16.10;;;10.70;99.90;;;;;;5055270;28;20234;-88
2021/11/10 06:48:55;;;;;;;30.83;14.37;;;10.70;99.90;;;;;;5055494;28;20202;-87
2021/11/10 06:51:22;;;;;;;40.60;15.80;;;10.70;99.90;;;;;;5055503;28;20600;-88
2021/11/10 06:53:49;;;;;;;33.67;16.40;;;10.70;99.90;;;;;;5055770;28;20210;-87
2021/11/10 06:56:17;;;;;;;32.50;16.07;;;10.70;99.90;;;;;;5055652;28;20201;-87
2021/11/10 06:58:46;;;;;;;35.87;15.63;;;10.70;99.90;;;;;;5055222;28;20252;-86
2021/11/10 07:01:13;;;;;;;31.97;14.97;;;10.70;99.90;;;;;;5073587;28;20220;-88
2021/11/10 07:03:40;;;;;;;40.57;15.73;;;10.70;99.90;;;;;;5055173;28;20226;-85
2021/11/10 07:06:07;;;;;;;28.50;13.27;;;10.70;99.90;;;;;;5033918;28;20203;-86
2021/11/10 07:08:34;;;;;;;29.13;14.20;;;10.70;99.90;;;;;;5034587;28;20206;-87
2021/11/10 07:11:01;;;;;;;26.10;12.80;;;10.70;99.90;;;;;;5035497;28;20586;-86
2021/11/10 07:13:27;;;;;;;26.70;14.43;;;10.70;99.90;;;;;;5034782;28;20228;-86
2021/11/10 07:15:56;;;;;;;32.53;14.40;;;10.70;99.90;;;;;;5036110;28;20217;-86
2021/11/10 07:18:22;;;;;;;31.53;14.00;;;10.70;99.90;;;;;;5034570;28;20241;-85
2021/11/10 07:20:49;;;;;;;34.57;14.67;;;10.70;99.90;;;;;;5034750;28;20213;-86
2021/11/10 07:23:16;;;;;;;30.33;13.50;;;10.70;99.90;;;;;;5035308;28;20210;-85
2021/11/10 07:25:43;;;;;;;24.57;11.03;;;10.70;99.90;;;;;;5035388;28;20587;-86
2021/11/10 07:28:10;;;;;;;28.87;12.60;;;10.70;99.90;;;;;;5034656;28;20206;-86
2021/11/10 07:30:38;;;;;;;28.10;12.67;;;10.70;99.90;;;;;;5040273;28;20226;-86
2021/11/10 07:33:06;;;;;;;26.37;12.70;;;10.70;99.90;;;;;;5047044;28;20206;-83
2021/11/10 07:35:33;;;;;;;24.20;12.53;;;10.70;99.90;;;;;;5047732;28;20203;-87
2021/11/10 07:38:00;;;;;;;32.10;13.73;;;10.70;99.90;;;;;;5046561;28;20219;-88
2021/11/10 07:40:27;;;;;;;23.57;11.63;;;10.70;99.90;;;;;;5041159;28;20222;-86
2021/11/10 07:42:54;;;;;;;31.83;14.23;;;10.70;99.90;;;;;;5046949;28;20197;-83
2021/11/10 07:45:35;;;;;;;31.67;14.07;;;10.80;99.90;;;;;;5053986;28;20529;-86
2021/11/10 07:48:03;;;;;;;29.87;13.17;;;10.80;99.90;;;;;;5067705;28;20280;-85
2021/11/10 07:50:33;;;;;;;26.00;12.43;;;10.80;99.90;;;;;;5053861;28;20202;-84
2021/11/10 07:53:00;;;;;;;23.03;12.80;;;10.80;99.90;;;;;;5054288;28;20289;-87
2021/11/10 07:55:27;;;;;;;24.70;11.67;;;10.80;99.90;;;;;;5053124;28;20205;-87
2021/11/10 07:57:54;;;;;;;25.30;12.40;;;10.80;99.90;;;;;;5049673;28;20232;-84
2021/11/10 08:00:23;;;;;;;27.47;11.63;;;10.80;99.90;;;;;;5032622;28;20202;-84
2021/11/10 08:02:51;;;;;;;30.67;12.43;;;10.80;99.90;;;;;;4984487;28;20215;-86
2021/11/10 08:05:18;;;;;;;26.73;12.17;;;10.80;99.90;;;;;;5041331;28;20217;-85
2021/11/10 08:07:47;;;;;;;27.00;12.93;;;10.80;99.90;;;;;;5052893;28;20190;-86
2021/11/10 08:10:16;;;;;;;23.80;11.33;;;10.80;99.90;;;;;;5053648;28;20574;-86
2021/11/10 08:12:43;;;;;;;21.43;10.70;;;10.80;99.90;;;;;;5053892;28;20202;-87
2021/11/10 08:15:12;;;;;;;22.67;11.77;;;10.80;99.90;;;;;;5053168;28;20212;-89
2021/11/10 08:17:40;;;;;;;20.73;10.87;;;10.90;99.90;;;;;;5052645;28;20237;-88
2021/11/10 08:20:09;;;;;;;22.00;11.80;;;10.90;99.90;;;;;;5052779;28;20210;-83
2021/11/10 08:22:36;;;;;;;17.03;9.40;;;10.90;99.90;;;;;;5052566;28;20198;-84
2021/11/10 08:25:07;;;;;;;25.10;11.20;;;10.90;99.90;;;;;;5053064;28;20206;-86
2021/11/10 08:27:35;;;;;;;19.37;10.53;;;10.90;99.90;;;;;;5052298;28;20252;-85
2021/11/10 08:30:03;;;;;;;26.10;10.57;;;11.00;99.90;;;;;;5031958;28;20256;-83
2021/11/10 08:32:30;;;;;;;22.03;10.33;;;11.00;99.90;;;;;;5027902;28;20209;-81
2021/11/10 08:34:57;;;;;;;21.53;10.77;;;11.10;99.90;;;;;;5047919;28;20225;-82
2021/11/10 08:37:24;;;;;;;19.30;10.57;;;11.10;99.90;;;;;;5048391;28;20202;-81
2021/11/10 08:39:51;;;;;;;21.13;11.07;;;11.20;99.90;;;;;;5049820;28;20194;-82
2021/11/10 08:42:19;;;;;;;18.00;10.90;;;11.20;99.90;;;;;;5049869;28;20206;-84
2021/11/10 08:44:51;;;;;;;20.37;12.03;;;11.30;99.90;;;;;;5048712;28;20275;-82
2021/11/10 08:47:18;;;;;;;20.23;11.53;;;11.30;99.90;;;;;;5038357;28;20414;-86
2021/11/10 08:49:46;;;;;;;18.60;11.00;;;11.40;99.90;;;;;;5030885;28;20278;-85
2021/11/10 08:52:13;;;;;;;15.97;9.67;;;11.50;99.90;;;;;;5039437;28;20206;-82
2021/11/10 08:54:39;;;;;;;19.27;10.60;;;11.50;99.90;;;;;;5051072;28;20546;-85
2021/11/10 08:57:07;;;;;;;23.30;9.83;;;11.60;99.90;;;;;;5052178;28;20194;-82
2021/11/10 08:59:35;;;;;;;16.73;9.13;;;11.60;99.90;;;;;;5051157;28;20226;-84
2021/11/10 09:02:02;;;;;;;17.67;9.67;;;11.70;99.90;;;;;;5051079;28;20226;-84
2021/11/10 09:04:29;;;;;;;19.30;9.67;;;11.80;99.90;;;;;;5051083;28;20202;-83
2021/11/10 09:06:56;;;;;;;17.73;8.57;;;11.80;99.90;;;;;;5051881;28;20286;-87
2021/11/10 09:09:23;;;;;;;18.03;9.33;;;11.80;99.90;;;;;;5049260;28;20478;-86
2021/11/10 09:11:50;;;;;;;15.13;8.77;;;11.90;99.90;;;;;;5032363;28;20194;-87
2021/11/10 09:14:18;;;;;;;16.50;8.73;;;11.90;99.90;;;;;;5031869;28;20210;-87
2021/11/10 09:16:47;;;;;;;17.57;10.40;;;11.90;99.90;;;;;;5031182;28;21019;-85
2021/11/10 09:19:14;;;;;;;17.67;10.10;;;12.00;99.90;;;;;;5031626;28;20657;-86
2021/11/10 09:21:41;;;;;;;15.60;8.80;;;12.00;99.90;;;;;;5031326;28;20186;-84
2021/11/10 09:24:08;;;;;;;20.90;9.93;;;12.00;99.90;;;;;;5036030;28;20213;-84
2021/11/10 09:26:37;;;;;;;18.23;9.33;;;12.10;99.90;;;;;;5051242;28;20209;-85
2021/11/10 09:29:04;;;;;;;19.03;9.17;;;12.10;99.90;;;;;;5051096;28;20194;-85
2021/11/10 09:31:31;;;;;;;17.27;8.87;;;12.10;99.90;;;;;;5048918;28;20265;-86
2021/11/10 09:34:03;;;;;;;16.77;9.00;;;12.10;99.90;;;;;;5031512;28;20198;-87
2021/11/10 09:36:30;;;;;;;15.50;8.83;;;12.10;99.90;;;;;;5031577;28;20206;-87
2021/11/10 09:38:57;;;;;;;20.77;9.57;;;12.10;99.90;;;;;;5031468;28;20530;-88
2021/11/10 09:41:25;;;;;;;17.40;8.67;;;12.00;99.90;;;;;;5065902;28;20209;-86
2021/11/10 09:43:52;;;;;;;18.43;8.40;;;12.00;99.90;;;;;;5071247;28;20923;-85
2021/11/10 09:46:19;;;;;;;13.70;7.80;;;12.00;99.90;;;;;;5071113;28;20255;-87
2021/11/10 09:48:46;;;;;;;17.03;9.23;;;12.00;99.90;;;;;;5063209;28;20198;-86
2021/11/10 09:51:14;;;;;;;15.33;9.00;;;12.00;99.90;;;;;;5051233;28;20230;-87
2021/11/10 09:53:41;;;;;;;18.10;8.50;;;12.00;99.90;;;;;;5033910;28;20217;-80
2021/11/10 09:56:08;;;;;;;19.30;8.77;;;12.00;99.90;;;;;;5057812;28;20216;-84
2021/11/10 09:58:37;;;;;;;10.43;7.47;;;12.00;99.90;;;;;;5070080;28;20225;-82
2021/11/10 10:01:06;;;;;;;14.80;8.77;;;12.00;99.90;;;;;;5067627;28;20292;-86
2021/11/10 10:03:34;;;;;;;17.33;9.67;;;12.00;99.90;;;;;;5067492;28;20225;-86
2021/11/10 10:06:01;;;;;;;14.93;8.83;;;12.00;99.90;;;;;;5031719;28;20205;-87
2021/11/10 10:08:29;;;;;;;15.57;9.23;;;12.00;99.90;;;;;;5030571;28;20194;-85
2021/11/10 10:10:56;;;;;;;22.27;9.70;;;12.00;99.90;;;;;;5042276;28;20209;-85
2021/11/10 10:13:23;;;;;;;17.23;9.70;;;12.00;99.90;;;;;;5071100;28;20601;-85
2021/11/10 10:15:51;;;;;;;17.83;8.90;;;12.00;99.90;;;;;;5071223;28;20296;-84
2021/11/10 10:18:21;;;;;;;15.47;8.60;;;12.00;99.90;;;;;;5070964;28;20213;-84
2021/11/10 10:20:52;;;;;;;17.50;8.27;;;12.00;99.90;;;;;;5070607;28;20205;-84
2021/11/10 10:23:21;;;;;;;19.60;9.60;;;12.00;99.90;;;;;;5067538;28;20202;-87
2021/11/10 10:25:51;;;;;;;22.73;10.10;;;12.00;99.90;;;;;;5051421;28;20202;-86
2021/11/10 10:28:24;;;;;;;17.07;9.87;;;12.00;99.90;;;;;;5050936;28;20229;-85
2021/11/10 10:30:53;;;;;;;15.93;8.07;;;12.00;99.90;;;;;;5051411;28;20198;-83
2021/11/10 10:33:22;;;;;;;15.03;8.70;;;12.00;99.90;;;;;;5050735;28;20214;-85
2021/11/10 10:35:51;;;;;;;21.57;10.00;;;12.10;99.90;;;;;;5051442;28;20225;-85
2021/11/10 10:38:19;;;;;;;15.37;9.03;;;12.10;99.90;;;;;;5050384;28;20809;-86
2021/11/10 10:40:50;;;;;;;15.63;10.23;;;12.10;99.90;;;;;;5051011;28;20198;-84
2021/11/10 10:43:24;;;;;;;28.27;9.67;;;12.20;99.90;;;;;;5055263;28;20527;-85
2021/11/10 10:45:53;;;;;;;19.40;8.67;;;12.20;99.90;;;;;;5070928;28;20543;-83
2021/11/10 10:48:25;;;;;;;16.87;9.20;;;12.20;99.90;;;;;;5070365;28;20524;-89
2021/11/10 10:50:55;;;;;;;22.27;10.93;;;12.30;99.90;;;;;;5058054;28;20214;-89
2021/11/10 10:53:33;;;;;;;16.60;9.57;;;12.30;99.90;;;;;;5050908;28;20202;-89
2021/11/10 10:56:13;;;;;;;13.87;8.27;;;12.40;99.90;;;;;;5051285;28;20196;-89
2021/11/10 10:58:40;;;;;;;20.47;9.07;;;12.40;99.90;;;;;;5045581;28;20215;-86
2021/11/10 11:01:24;;;;;;;17.67;9.50;;;12.40;99.90;;;;;;5031288;28;20218;-84
2021/11/10 11:03:52;;;;;;;19.90;8.77;;;12.40;99.90;;;;;;5031441;28;20227;-88
2021/11/10 11:06:31;;;;;;;17.17;8.40;;;12.40;99.90;;;;;;5043848;28;20222;-88
2021/11/10 11:08:59;;;;;;;17.97;9.17;;;12.50;99.90;;;;;;5050670;28;20293;-88
2021/11/10 11:11:44;;;;;;;19.33;9.30;;;12.60;99.90;;;;;;5050688;28;20205;-89
2021/11/10 11:14:26;;;;;;;21.67;8.93;;;12.50;99.90;;;;;;5051137;28;20240;-88
2021/11/10 11:17:04;;;;;;;19.30;8.93;;;12.50;99.90;;;;;;5051398;28;20214;-86
2021/11/10 11:19:33;;;;;;;15.83;8.30;;;12.50;99.90;;;;;;5051705;28;20218;-85
2021/11/10 11:22:01;;;;;;;20.13;9.37;;;12.60;99.90;;;;;;5054315;28;20277;-89
2021/11/10 11:24:38;;;;;;;18.60;8.27;;;12.60;99.90;;;;;;5053920;28;20205;-86
2021/11/10 11:27:28;;;;;;;25.20;9.30;;;12.60;99.90;;;;;;5052925;28;20212;-85
2021/11/10 11:30:08;;;;;;;20.57;8.60;;;12.50;99.90;;;;;;5052072;28;20197;-85
2021/11/10 11:32:38;;;;;;;20.53;9.07;;;12.60;99.90;;;;;;5036328;28;20217;-88
2021/11/10 11:35:13;;;;;;;17.93;9.10;;;12.60;99.90;;;;;;5033944;28;20199;-87
2021/11/10 11:37:41;;;;;;;16.90;8.47;;;12.60;99.90;;;;;;5033660;28;20201;-85
2021/11/10 11:40:12;;;;;;;16.37;7.60;;;12.60;99.90;;;;;;5040986;28;20233;-85
2021/11/10 11:42:40;;;;;;;20.77;9.37;;;12.70;99.90;;;;;;5053605;28;20202;-84
2021/11/10 11:45:09;;;;;;;20.30;10.57;;;12.70;99.90;;;;;;5047850;28;20253;-81
2021/11/10 11:47:36;;;;;;;20.97;8.93;;;12.80;99.90;;;;;;5033533;28;20198;-86
2021/11/10 11:50:04;;;;;;;22.23;9.37;;;12.80;99.90;;;;;;5034707;28;20527;-84
2021/11/10 11:52:33;;;;;;;22.07;9.50;;;12.80;99.90;;;;;;5033286;28;20206;-84
2021/11/10 11:55:12;;;;;;;19.03;8.63;;;12.90;99.90;;;;;;5034095;28;20214;-83
2021/11/10 11:57:45;;;;;;;20.43;8.57;;;12.90;99.90;;;;;;5032839;28;20234;-83
2021/11/10 12:00:13;;;;;;;18.20;9.60;;;12.90;99.90;;;;;;5040474;28;20252;-86
2021/11/10 12:02:46;;;;;;;21.10;9.53;;;12.90;99.90;;;;;;5052675;28;20217;-86
2021/11/10 12:05:19;;;;;;;22.43;9.87;;;12.90;99.90;;;;;;5070732;23;20227;-84
2021/11/10 12:07:50;;;;;;;16.97;8.97;;;12.90;99.90;;;;;;5092594;28;20197;-86
2021/11/10 12:10:37;;;;;;;22.37;9.00;;;12.80;99.90;;;;;;5091973;28;20205;-87
2021/11/10 12:13:25;;;;;;;16.63;8.40;;;12.90;99.90;;;;;;5077814;28;20204;-81
2021/11/10 12:16:14;;;;;;;18.10;9.20;;;12.80;99.90;;;;;;5073034;28;20193;-87
2021/11/10 12:18:49;;;;;;;15.37;8.73;;;12.80;99.90;;;;;;5072575;28;20212;-85
2021/11/10 12:21:22;;;;;;;17.97;8.87;;;12.80;99.90;;;;;;5072205;28;20193;-80
2021/11/10 12:24:30;;;;;;;21.97;9.70;;;12.80;99.90;;;;;;5072394;28;20205;-82
2021/11/10 12:27:15;;;;;;;19.03;10.13;;;12.90;99.90;;;;;;5010682;28;20214;-86
2021/11/10 12:29:57;;;;;;;22.43;10.30;;;12.90;99.90;;;;;;5070318;28;20831;-86
2021/11/10 12:32:43;;;;;;;16.37;8.87;;;12.90;99.90;;;;;;5073009;28;20204;-85
2021/11/10 12:35:19;;;;;;;20.90;10.10;;;12.90;99.90;;;;;;5073517;28;20228;-84
2021/11/10 12:37:49;;;;;;;22.80;10.20;;;13.00;99.90;;;;;;5073187;28;20193;-84